sensor_id;sensor_type;location;lat;lon;timestamp;temperature;humidity
19342;DHT22;9807;48.258;12.690;2022-08-21T00:00:13;18.60;99.90
19342;DHT22;9807;48.258;12.690;2022-08-21T00:02:49;18.50;99.90
19342;DHT22;9807;48.258;12.690;2022-08-21T00:05:16;18.40;99.90
19342;DHT22;9807;48.258;12.690;2022-08-21T00:07:45;18.40;99.90
19342;DHT22;9807;48.258;12.690;2022-08-21T00:10:12;18.50;99.90
19342;DHT22;9807;48.258;12.690;2022-08-21T00:12:38;18.60;99.90
19342;DHT22;9807;48.258;12.690;2022-08-21T00:15:08;18.60;99.90
19342;DHT22;9807;48.258;12.690;2022-08-21T00:17:36;18.70;99.90
19342;DHT22;9807;48.258;12.690;2022-08-21T00:20:13;18.80;99.90
19342;DHT22;9807;48.258;12.690;2022-08-21T00:22:45;19.00;99.90
19342;DHT22;9807;48.258;12.690;2022-08-21T00:25:14;19.10;99.90
19342;DHT22;9807;48.258;12.690;2022-08-21T00:27:41;19.30;99.90
19342;DHT22;9807;48.258;12.690;2022-08-21T00:30:13;19.50;99.90
19342;DHT22;9807;48.258;12.690;2022-08-21T00:32:40;19.50;99.90
19342;DHT22;9807;48.258;12.690;2022-08-21T00:35:08;19.40;99.90
19342;DHT22;9807;48.258;12.690;2022-08-21T00:37:35;19.30;99.90
19342;DHT22;9807;48.258;12.690;2022-08-21T00:40:00;19.10;99.90
19342;DHT22;9807;48.258;12.690;2022-08-21T00:42:28;19.10;99.90
19342;DHT22;9807;48.258;12.690;2022-08-21T00:44:54;19.00;99.90
19342;DHT22;9807;48.258;12.690;2022-08-21T00:47:20;19.00;99.90
19342;DHT22;9807;48.258;12.690;2022-08-21T00:49:46;19.00;99.90
19342;DHT22;9807;48.258;12.690;2022-08-21T00:52:17;19.00;99.90
19342;DHT22;9807;48.258;12.690;2022-08-21T00:54:46;18.90;99.90
19342;DHT22;9807;48.258;12.690;2022-08-21T00:57:19;18.90;99.90
19342;DHT22;9807;48.258;12.690;2022-08-21T00:59:51;19.00;99.90
19342;DHT22;9807;48.258;12.690;2022-08-21T01:02:19;19.10;99.90
19342;DHT22;9807;48.258;12.690;2022-08-21T01:04:46;19.00;99.90
19342;DHT22;9807;48.258;12.690;2022-08-21T01:07:12;19.10;99.90
19342;DHT22;9807;48.258;12.690;2022-08-21T01:09:38;19.10;99.90
19342;DHT22;9807;48.258;12.690;2022-08-21T01:12:05;19.10;99.90
19342;DHT22;9807;48.258;12.690;2022-08-21T01:14:31;19.20;99.90
19342;DHT22;9807;48.258;12.690;2022-08-21T01:16:58;19.40;99.90
19342;DHT22;9807;48.258;12.690;2022-08-21T01:19:25;19.60;99.90
19342;DHT22;9807;48.258;12.690;2022-08-21T01:21:51;19.70;99.90
19342;DHT22;9807;48.258;12.690;2022-08-21T01:24:27;19.80;99.90
19342;DHT22;9807;48.258;12.690;2022-08-21T01:26:54;20.00;99.90
19342;DHT22;9807;48.258;12.690;2022-08-21T01:29:30;20.10;99.90
19342;DHT22;9807;48.258;12.690;2022-08-21T01:31:58;20.20;99.90
19342;DHT22;9807;48.258;12.690;2022-08-21T01:34:25;20.30;99.90
19342;DHT22;9807;48.258;12.690;2022-08-21T01:36:50;20.30;99.90
19342;DHT22;9807;48.258;12.690;2022-08-21T01:39:16;20.40;99.90
19342;DHT22;9807;48.258;12.690;2022-08-21T01:41:47;20.40;99.90
19342;DHT22;9807;48.258;12.690;2022-08-21T01:44:13;20.50;99.90
19342;DHT22;9807;48.258;12.690;2022-08-21T01:46:38;20.50;99.90
19342;DHT22;9807;48.258;12.690;2022-08-21T01:49:05;20.60;99.90
19342;DHT22;9807;48.258;12.690;2022-08-21T01:51:31;20.60;99.90
19342;DHT22;9807;48.258;12.690;2022-08-21T01:53:56;20.60;99.90
19342;DHT22;9807;48.258;12.690;2022-08-21T01:56:22;20.60;99.90
19342;DHT22;9807;48.258;12.690;2022-08-21T01:58:53;20.60;99.90
19342;DHT22;9807;48.258;12.690;2022-08-21T02:01:18;20.60;99.90
19342;DHT22;9807;48.258;12.690;2022-08-21T02:03:44;20.60;99.90
19342;DHT22;9807;48.258;12.690;2022-08-21T02:06:15;20.60;99.90
19342;DHT22;9807;48.258;12.690;2022-08-21T02:08:46;20.60;99.90
19342;DHT22;9807;48.258;12.690;2022-08-21T02:11:12;20.60;99.90
19342;DHT22;9807;48.258;12.690;2022-08-21T02:13:38;20.60;99.90
19342;DHT22;9807;48.258;12.690;2022-08-21T02:16:03;20.60;99.90
19342;DHT22;9807;48.258;12.690;2022-08-21T02:18:29;20.60;99.90
19342;DHT22;9807;48.258;12.690;2022-08-21T02:20:55;20.60;99.90
19342;DHT22;9807;48.258;12.690;2022-08-21T02:23:24;20.60;99.90
19342;DHT22;9807;48.258;12.690;2022-08-21T02:25:49;20.60;99.90
19342;DHT22;9807;48.258;12.690;2022-08-21T02:28:15;20.60;99.90
19342;DHT22;9807;48.258;12.690;2022-08-21T02:30:46;20.60;99.90
19342;DHT22;9807;48.258;12.690;2022-08-21T02:33:13;20.60;99.90
19342;DHT22;9807;48.258;12.690;2022-08-21T02:35:41;20.50;99.90
19342;DHT22;9807;48.258;12.690;2022-08-21T02:38:13;20.40;99.90
19342;DHT22;9807;48.258;12.690;2022-08-21T02:40:50;20.40;99.90
19342;DHT22;9807;48.258;12.690;2022-08-21T02:43:18;20.40;99.90
19342;DHT22;9807;48.258;12.690;2022-08-21T02:45:45;20.40;99.90
19342;DHT22;9807;48.258;12.690;2022-08-21T02:48:15;20.40;99.90
19342;DHT22;9807;48.258;12.690;2022-08-21T02:50:46;20.40;99.90
19342;DHT22;9807;48.258;12.690;2022-08-21T02:53:13;20.30;99.90
19342;DHT22;9807;48.258;12.690;2022-08-21T02:55:40;20.20;99.90
19342;DHT22;9807;48.258;12.690;2022-08-21T02:58:08;20.10;99.90
19342;DHT22;9807;48.258;12.690;2022-08-21T03:00:36;20.10;99.90
19342;DHT22;9807;48.258;12.690;2022-08-21T03:03:02;20.10;99.90
19342;DHT22;9807;48.258;12.690;2022-08-21T03:05:29;20.20;99.90
19342;DHT22;9807;48.258;12.690;2022-08-21T03:07:57;20.20;99.90
19342;DHT22;9807;48.258;12.690;2022-08-21T03:10:24;20.30;99.90
19342;DHT22;9807;48.258;12.690;2022-08-21T03:12:50;20.30;99.90
19342;DHT22;9807;48.258;12.690;2022-08-21T03:15:19;20.40;99.90
19342;DHT22;9807;48.258;12.690;2022-08-21T03:17:46;20.40;99.90
19342;DHT22;9807;48.258;12.690;2022-08-21T03:20:14;20.40;99.90
19342;DHT22;9807;48.258;12.690;2022-08-21T03:22:41;20.40;99.90
19342;DHT22;9807;48.258;12.690;2022-08-21T03:25:07;20.40;99.90
19342;DHT22;9807;48.258;12.690;2022-08-21T03:27:34;20.10;99.90
19342;DHT22;9807;48.258;12.690;2022-08-21T03:30:01;20.00;99.90
19342;DHT22;9807;48.258;12.690;2022-08-21T03:32:27;19.80;99.90
19342;DHT22;9807;48.258;12.690;2022-08-21T03:34:54;19.80;99.90
19342;DHT22;9807;48.258;12.690;2022-08-21T03:37:20;19.70;99.90
19342;DHT22;9807;48.258;12.690;2022-08-21T03:39:45;19.60;99.90
19342;DHT22;9807;48.258;12.690;2022-08-21T03:42:11;19.40;99.90
19342;DHT22;9807;48.258;12.690;2022-08-21T03:44:37;19.30;99.90
19342;DHT22;9807;48.258;12.690;2022-08-21T03:47:05;19.40;99.90
19342;DHT22;9807;48.258;12.690;2022-08-21T03:49:31;19.50;99.90
19342;DHT22;9807;48.258;12.690;2022-08-21T03:51:57;19.60;99.90
19342;DHT22;9807;48.258;12.690;2022-08-21T03:54:22;19.70;99.90
19342;DHT22;9807;48.258;12.690;2022-08-21T03:56:48;19.70;99.90
19342;DHT22;9807;48.258;12.690;2022-08-21T03:59:14;19.80;99.90
19342;DHT22;9807;48.258;12.690;2022-08-21T04:01:50;19.90;99.90
19342;DHT22;9807;48.258;12.690;2022-08-21T04:04:15;20.00;99.90
19342;DHT22;9807;48.258;12.690;2022-08-21T04:06:41;20.00;99.90
19342;DHT22;9807;48.258;12.690;2022-08-21T04:09:07;20.10;99.90
19342;DHT22;9807;48.258;12.690;2022-08-21T04:11:33;20.20;99.90
19342;DHT22;9807;48.258;12.690;2022-08-21T04:13:59;20.20;99.90
19342;DHT22;9807;48.258;12.690;2022-08-21T04:16:25;20.10;99.90
19342;DHT22;9807;48.258;12.690;2022-08-21T04:18:51;20.00;99.90
19342;DHT22;9807;48.258;12.690;2022-08-21T04:21:16;20.00;99.90
19342;DHT22;9807;48.258;12.690;2022-08-21T04:23:45;20.00;99.90
19342;DHT22;9807;48.258;12.690;2022-08-21T04:26:11;19.80;99.90
19342;DHT22;9807;48.258;12.690;2022-08-21T04:28:36;19.70;99.90
19342;DHT22;9807;48.258;12.690;2022-08-21T04:31:05;19.50;99.90
19342;DHT22;9807;48.258;12.690;2022-08-21T04:33:31;19.50;99.90
19342;DHT22;9807;48.258;12.690;2022-08-21T04:35:56;19.60;99.90
19342;DHT22;9807;48.258;12.690;2022-08-21T04:38:25;19.80;99.90
19342;DHT22;9807;48.258;12.690;2022-08-21T04:40:51;19.80;99.90
19342;DHT22;9807;48.258;12.690;2022-08-21T04:43:18;20.00;99.90
19342;DHT22;9807;48.258;12.690;2022-08-21T04:45:47;20.00;99.90
19342;DHT22;9807;48.258;12.690;2022-08-21T04:48:15;20.10;99.90
19342;DHT22;9807;48.258;12.690;2022-08-21T04:50:50;20.00;99.90
19342;DHT22;9807;48.258;12.690;2022-08-21T04:53:22;19.80;99.90
19342;DHT22;9807;48.258;12.690;2022-08-21T04:55:51;19.80;99.90
19342;DHT22;9807;48.258;12.690;2022-08-21T04:58:20;19.50;99.90
19342;DHT22;9807;48.258;12.690;2022-08-21T05:00:47;19.40;99.90
19342;DHT22;9807;48.258;12.690;2022-08-21T05:03:15;19.30;99.90
19342;DHT22;9807;48.258;12.690;2022-08-21T05:05:46;19.20;99.90
19342;DHT22;9807;48.258;12.690;2022-08-21T05:08:15;19.10;99.90
19342;DHT22;9807;48.258;12.690;2022-08-21T05:10:41;19.00;99.90
19342;DHT22;9807;48.258;12.690;2022-08-21T05:13:12;18.80;99.90
19342;DHT22;9807;48.258;12.690;2022-08-21T05:15:39;18.60;99.90
19342;DHT22;9807;48.258;12.690;2022-08-21T05:18:05;18.70;99.90
19342;DHT22;9807;48.258;12.690;2022-08-21T05:20:32;18.60;99.90
19342;DHT22;9807;48.258;12.690;2022-08-21T05:23:00;18.60;99.90
19342;DHT22;9807;48.258;12.690;2022-08-21T05:25:26;18.50;99.90
19342;DHT22;9807;48.258;12.690;2022-08-21T05:27:51;18.40;99.90
19342;DHT22;9807;48.258;12.690;2022-08-21T05:30:19;18.30;99.90
19342;DHT22;9807;48.258;12.690;2022-08-21T05:32:55;18.30;99.90
19342;DHT22;9807;48.258;12.690;2022-08-21T05:35:29;18.40;99.90
19342;DHT22;9807;48.258;12.690;2022-08-21T05:37:54;18.60;99.90
19342;DHT22;9807;48.258;12.690;2022-08-21T05:40:27;18.50;99.90
19342;DHT22;9807;48.258;12.690;2022-08-21T05:42:54;18.40;99.90
19342;DHT22;9807;48.258;12.690;2022-08-21T05:45:24;18.40;99.90
19342;DHT22;9807;48.258;12.690;2022-08-21T05:47:50;18.30;99.90
19342;DHT22;9807;48.258;12.690;2022-08-21T05:50:16;18.40;99.90
19342;DHT22;9807;48.258;12.690;2022-08-21T05:52:41;18.40;99.90
19342;DHT22;9807;48.258;12.690;2022-08-21T05:55:07;18.50;99.90
19342;DHT22;9807;48.258;12.690;2022-08-21T05:57:33;18.40;99.90
19342;DHT22;9807;48.258;12.690;2022-08-21T05:59:59;18.30;99.90
19342;DHT22;9807;48.258;12.690;2022-08-21T06:02:28;18.30;99.90
19342;DHT22;9807;48.258;12.690;2022-08-21T06:04:56;18.30;99.90
19342;DHT22;9807;48.258;12.690;2022-08-21T06:07:25;18.30;99.90
19342;DHT22;9807;48.258;12.690;2022-08-21T06:09:50;18.30;99.90
19342;DHT22;9807;48.258;12.690;2022-08-21T06:12:17;18.20;99.90
19342;DHT22;9807;48.258;12.690;2022-08-21T06:14:45;18.20;99.90
19342;DHT22;9807;48.258;12.690;2022-08-21T06:17:12;18.20;99.90
19342;DHT22;9807;48.258;12.690;2022-08-21T06:19:39;18.20;99.90
19342;DHT22;9807;48.258;12.690;2022-08-21T06:22:05;18.30;99.90
19342;DHT22;9807;48.258;12.690;2022-08-21T06:24:31;18.40;99.90
19342;DHT22;9807;48.258;12.690;2022-08-21T06:26:57;18.40;99.90
19342;DHT22;9807;48.258;12.690;2022-08-21T06:29:25;18.30;99.90
19342;DHT22;9807;48.258;12.690;2022-08-21T06:31:51;18.40;99.90
19342;DHT22;9807;48.258;12.690;2022-08-21T06:34:17;18.40;99.90
19342;DHT22;9807;48.258;12.690;2022-08-21T06:36:46;18.50;99.90
19342;DHT22;9807;48.258;12.690;2022-08-21T06:39:12;18.70;99.90
19342;DHT22;9807;48.258;12.690;2022-08-21T06:41:38;18.80;99.90
19342;DHT22;9807;48.258;12.690;2022-08-21T06:44:04;18.70;99.90
19342;DHT22;9807;48.258;12.690;2022-08-21T06:46:31;18.70;99.90
19342;DHT22;9807;48.258;12.690;2022-08-21T06:48:57;18.80;99.90
19342;DHT22;9807;48.258;12.690;2022-08-21T06:51:24;18.80;99.90
19342;DHT22;9807;48.258;12.690;2022-08-21T06:53:51;18.70;99.90
19342;DHT22;9807;48.258;12.690;2022-08-21T06:56:16;18.50;99.90
19342;DHT22;9807;48.258;12.690;2022-08-21T06:58:45;18.50;99.90
19342;DHT22;9807;48.258;12.690;2022-08-21T07:01:11;18.50;99.90
19342;DHT22;9807;48.258;12.690;2022-08-21T07:03:39;18.50;99.90
19342;DHT22;9807;48.258;12.690;2022-08-21T07:06:06;18.40;99.90
19342;DHT22;9807;48.258;12.690;2022-08-21T07:08:32;18.50;99.90
19342;DHT22;9807;48.258;12.690;2022-08-21T07:11:00;18.50;99.90
19342;DHT22;9807;48.258;12.690;2022-08-21T07:13:29;18.50;99.90
19342;DHT22;9807;48.258;12.690;2022-08-21T07:15:54;18.60;99.90
19342;DHT22;9807;48.258;12.690;2022-08-21T07:18:20;18.50;99.90
19342;DHT22;9807;48.258;12.690;2022-08-21T07:20:46;18.50;99.90
19342;DHT22;9807;48.258;12.690;2022-08-21T07:23:37;18.60;99.90
19342;DHT22;9807;48.258;12.690;2022-08-21T07:26:00;18.70;99.90
19342;DHT22;9807;48.258;12.690;2022-08-21T07:28:27;18.70;99.90
19342;DHT22;9807;48.258;12.690;2022-08-21T07:30:58;18.60;99.90
19342;DHT22;9807;48.258;12.690;2022-08-21T07:33:26;18.80;99.90
19342;DHT22;9807;48.258;12.690;2022-08-21T07:35:52;18.90;99.90
19342;DHT22;9807;48.258;12.690;2022-08-21T07:38:17;18.90;99.90
19342;DHT22;9807;48.258;12.690;2022-08-21T07:40:48;19.10;99.90
19342;DHT22;9807;48.258;12.690;2022-08-21T07:43:16;19.20;99.90
19342;DHT22;9807;48.258;12.690;2022-08-21T07:45:46;19.30;99.90
19342;DHT22;9807;48.258;12.690;2022-08-21T07:48:11;19.40;99.90
19342;DHT22;9807;48.258;12.690;2022-08-21T07:50:37;19.40;99.90
19342;DHT22;9807;48.258;12.690;2022-08-21T07:53:04;19.40;99.90
19342;DHT22;9807;48.258;12.690;2022-08-21T07:55:30;19.40;99.90
19342;DHT22;9807;48.258;12.690;2022-08-21T07:57:56;19.40;99.90
19342;DHT22;9807;48.258;12.690;2022-08-21T08:00:27;19.50;99.90
19342;DHT22;9807;48.258;12.690;2022-08-21T08:02:55;19.40;99.90
19342;DHT22;9807;48.258;12.690;2022-08-21T08:05:28;19.50;99.90
19342;DHT22;9807;48.258;12.690;2022-08-21T08:07:54;19.70;99.90
19342;DHT22;9807;48.258;12.690;2022-08-21T08:10:24;19.80;99.90
19342;DHT22;9807;48.258;12.690;2022-08-21T08:12:52;19.90;99.90
19342;DHT22;9807;48.258;12.690;2022-08-21T08:15:25;19.80;99.90
19342;DHT22;9807;48.258;12.690;2022-08-21T08:17:51;19.80;99.90
19342;DHT22;9807;48.258;12.690;2022-08-21T08:20:18;19.90;99.90
19342;DHT22;9807;48.258;12.690;2022-08-21T08:22:44;20.00;99.90
19342;DHT22;9807;48.258;12.690;2022-08-21T08:25:12;20.20;99.90
19342;DHT22;9807;48.258;12.690;2022-08-21T08:27:39;20.20;99.90
19342;DHT22;9807;48.258;12.690;2022-08-21T08:30:07;20.20;99.90
19342;DHT22;9807;48.258;12.690;2022-08-21T08:32:33;20.30;99.90
19342;DHT22;9807;48.258;12.690;2022-08-21T08:35:03;20.20;99.90
19342;DHT22;9807;48.258;12.690;2022-08-21T08:37:29;20.30;99.90
19342;DHT22;9807;48.258;12.690;2022-08-21T08:39:57;20.50;99.90
19342;DHT22;9807;48.258;12.690;2022-08-21T08:42:35;20.70;99.90
19342;DHT22;9807;48.258;12.690;2022-08-21T08:45:10;20.80;99.90
19342;DHT22;9807;48.258;12.690;2022-08-21T08:47:42;20.80;99.90
19342;DHT22;9807;48.258;12.690;2022-08-21T08:52:57;20.90;99.90
19342;DHT22;9807;48.258;12.690;2022-08-21T08:55:33;21.10;99.90
19342;DHT22;9807;48.258;12.690;2022-08-21T08:57:59;21.00;99.90
19342;DHT22;9807;48.258;12.690;2022-08-21T09:00:26;21.00;99.90
19342;DHT22;9807;48.258;12.690;2022-08-21T09:02:54;21.10;99.90
19342;DHT22;9807;48.258;12.690;2022-08-21T09:05:28;21.10;99.90
19342;DHT22;9807;48.258;12.690;2022-08-21T09:11:14;21.10;99.90
19342;DHT22;9807;48.258;12.690;2022-08-21T09:13:52;21.30;99.90
19342;DHT22;9807;48.258;12.690;2022-08-21T09:19:27;21.90;99.90
19342;DHT22;9807;48.258;12.690;2022-08-21T09:22:08;21.80;99.90
19342;DHT22;9807;48.258;12.690;2022-08-21T09:27:12;21.70;99.90
19342;DHT22;9807;48.258;12.690;2022-08-21T09:29:41;21.80;99.90
19342;DHT22;9807;48.258;12.690;2022-08-21T09:32:22;21.70;99.90
19342;DHT22;9807;48.258;12.690;2022-08-21T09:37:46;21.60;99.90
19342;DHT22;9807;48.258;12.690;2022-08-21T09:45:40;22.60;99.90
19342;DHT22;9807;48.258;12.690;2022-08-21T09:50:39;23.00;99.90
19342;DHT22;9807;48.258;12.690;2022-08-21T09:53:13;23.30;99.90
19342;DHT22;9807;48.258;12.690;2022-08-21T09:55:51;23.50;99.90
19342;DHT22;9807;48.258;12.690;2022-08-21T09:58:38;23.50;99.90
19342;DHT22;9807;48.258;12.690;2022-08-21T10:01:06;23.40;99.90
19342;DHT22;9807;48.258;12.690;2022-08-21T10:03:36;23.30;99.90
19342;DHT22;9807;48.258;12.690;2022-08-21T10:06:07;23.30;99.90
19342;DHT22;9807;48.258;12.690;2022-08-21T10:08:36;23.20;99.90
19342;DHT22;9807;48.258;12.690;2022-08-21T10:11:16;23.00;99.90
19342;DHT22;9807;48.258;12.690;2022-08-21T10:14:00;23.10;99.90
19342;DHT22;9807;48.258;12.690;2022-08-21T10:16:55;23.10;99.90
19342;DHT22;9807;48.258;12.690;2022-08-21T10:30:20;22.90;99.90
19342;DHT22;9807;48.258;12.690;2022-08-21T10:32:52;22.80;99.90
19342;DHT22;9807;48.258;12.690;2022-08-21T10:39:07;23.10;99.90
19342;DHT22;9807;48.258;12.690;2022-08-21T10:47:20;23.50;99.90
19342;DHT22;9807;48.258;12.690;2022-08-21T10:50:10;23.30;99.90
19342;DHT22;9807;48.258;12.690;2022-08-21T10:55:59;23.20;99.90
19342;DHT22;9807;48.258;12.690;2022-08-21T11:01:50;23.30;99.90
19342;DHT22;9807;48.258;12.690;2022-08-21T11:04:23;23.30;99.90
19342;DHT22;9807;48.258;12.690;2022-08-21T11:07:03;23.20;99.90
19342;DHT22;9807;48.258;12.690;2022-08-21T11:09:31;23.30;99.90
19342;DHT22;9807;48.258;12.690;2022-08-21T11:12:05;23.20;99.90
19342;DHT22;9807;48.258;12.690;2022-08-21T11:17:37;23.10;99.90
19342;DHT22;9807;48.258;12.690;2022-08-21T11:20:15;23.00;99.90
19342;DHT22;9807;48.258;12.690;2022-08-21T11:22:58;23.00;99.90
19342;DHT22;9807;48.258;12.690;2022-08-21T11:25:39;23.10;99.90
19342;DHT22;9807;48.258;12.690;2022-08-21T11:28:15;23.20;99.90
19342;DHT22;9807;48.258;12.690;2022-08-21T11:36:42;23.30;99.90
19342;DHT22;9807;48.258;12.690;2022-08-21T11:39:43;23.40;99.90
19342;DHT22;9807;48.258;12.690;2022-08-21T11:42:15;23.20;99.90
19342;DHT22;9807;48.258;12.690;2022-08-21T11:45:26;23.10;99.90
19342;DHT22;9807;48.258;12.690;2022-08-21T11:50:51;23.60;99.90
19342;DHT22;9807;48.258;12.690;2022-08-21T11:53:47;23.70;99.90
19342;DHT22;9807;48.258;12.690;2022-08-21T11:56:39;23.70;99.90
19342;DHT22;9807;48.258;12.690;2022-08-21T11:59:18;23.80;99.90
19342;DHT22;9807;48.258;12.690;2022-08-21T12:01:48;23.90;99.90
19342;DHT22;9807;48.258;12.690;2022-08-21T12:06:49;24.20;99.90
19342;DHT22;9807;48.258;12.690;2022-08-21T12:12:00;24.60;99.90
19342;DHT22;9807;48.258;12.690;2022-08-21T12:14:42;24.60;99.90
19342;DHT22;9807;48.258;12.690;2022-08-21T12:17:35;24.40;99.90
19342;DHT22;9807;48.258;12.690;2022-08-21T12:26:30;24.40;99.90
19342;DHT22;9807;48.258;12.690;2022-08-21T12:28:31;24.40;99.90
19342;DHT22;9807;48.258;12.690;2022-08-21T12:30:57;24.50;99.90
19342;DHT22;9807;48.258;12.690;2022-08-21T12:33:34;24.50;99.90
19342;DHT22;9807;48.258;12.690;2022-08-21T12:36:18;24.60;99.90
19342;DHT22;9807;48.258;12.690;2022-08-21T12:38:57;24.70;99.90
19342;DHT22;9807;48.258;12.690;2022-08-21T12:42:04;24.70;99.90
19342;DHT22;9807;48.258;12.690;2022-08-21T12:44:53;24.80;99.90
19342;DHT22;9807;48.258;12.690;2022-08-21T12:50:41;24.50;99.90
19342;DHT22;9807;48.258;12.690;2022-08-21T12:55:53;24.30;99.90
19342;DHT22;9807;48.258;12.690;2022-08-21T12:58:25;24.20;99.90
19342;DHT22;9807;48.258;12.690;2022-08-21T13:01:01;24.40;99.90
19342;DHT22;9807;48.258;12.690;2022-08-21T13:03:31;24.60;99.90
19342;DHT22;9807;48.258;12.690;2022-08-21T13:06:00;24.80;99.90
19342;DHT22;9807;48.258;12.690;2022-08-21T13:08:29;24.90;99.90
19342;DHT22;9807;48.258;12.690;2022-08-21T13:11:01;25.20;99.90
19342;DHT22;9807;48.258;12.690;2022-08-21T13:13:29;25.30;99.90
19342;DHT22;9807;48.258;12.690;2022-08-21T13:16:06;25.40;99.90
19342;DHT22;9807;48.258;12.690;2022-08-21T13:18:51;25.40;99.90
19342;DHT22;9807;48.258;12.690;2022-08-21T13:21:18;25.30;99.90
19342;DHT22;9807;48.258;12.690;2022-08-21T13:23:46;25.30;99.90
19342;DHT22;9807;48.258;12.690;2022-08-21T13:26:19;25.40;99.90
19342;DHT22;9807;48.258;12.690;2022-08-21T13:28:46;25.50;99.90
19342;DHT22;9807;48.258;12.690;2022-08-21T13:31:20;25.60;99.90
19342;DHT22;9807;48.258;12.690;2022-08-21T13:33:50;25.80;99.90
19342;DHT22;9807;48.258;12.690;2022-08-21T13:36:28;25.90;99.90
19342;DHT22;9807;48.258;12.690;2022-08-21T13:38:55;26.00;99.90
19342;DHT22;9807;48.258;12.690;2022-08-21T13:41:27;25.90;99.90
19342;DHT22;9807;48.258;12.690;2022-08-21T13:43:59;25.90;99.90
19342;DHT22;9807;48.258;12.690;2022-08-21T13:46:29;25.80;99.90
19342;DHT22;9807;48.258;12.690;2022-08-21T13:48:56;25.70;99.90
19342;DHT22;9807;48.258;12.690;2022-08-21T13:51:26;25.60;99.90
19342;DHT22;9807;48.258;12.690;2022-08-21T13:53:53;25.60;99.90
19342;DHT22;9807;48.258;12.690;2022-08-21T13:56:41;25.70;99.90
19342;DHT22;9807;48.258;12.690;2022-08-21T13:59:07;25.70;99.90
19342;DHT22;9807;48.258;12.690;2022-08-21T14:01:36;25.80;99.90
19342;DHT22;9807;48.258;12.690;2022-08-21T14:04:29;25.80;99.90
19342;DHT22;9807;48.258;12.690;2022-08-21T14:06:56;25.80;99.90
19342;DHT22;9807;48.258;12.690;2022-08-21T14:09:39;25.80;99.90
19342;DHT22;9807;48.258;12.690;2022-08-21T14:12:19;26.00;99.90
19342;DHT22;9807;48.258;12.690;2022-08-21T14:14:48;26.10;99.90
19342;DHT22;9807;48.258;12.690;2022-08-21T14:17:27;26.20;99.90
19342;DHT22;9807;48.258;12.690;2022-08-21T14:19:53;26.20;99.90
19342;DHT22;9807;48.258;12.690;2022-08-21T14:22:31;26.20;99.90
19342;DHT22;9807;48.258;12.690;2022-08-21T14:27:54;26.20;99.90
19342;DHT22;9807;48.258;12.690;2022-08-21T14:30:31;26.30;99.90
19342;DHT22;9807;48.258;12.690;2022-08-21T14:33:00;26.40;99.90
19342;DHT22;9807;48.258;12.690;2022-08-21T14:35:27;26.50;99.90
19342;DHT22;9807;48.258;12.690;2022-08-21T14:37:53;26.40;99.90
19342;DHT22;9807;48.258;12.690;2022-08-21T14:40:21;26.40;99.90
19342;DHT22;9807;48.258;12.690;2022-08-21T14:42:50;26.40;99.90
19342;DHT22;9807;48.258;12.690;2022-08-21T14:45:28;26.40;99.90
19342;DHT22;9807;48.258;12.690;2022-08-21T14:47:55;26.40;99.90
19342;DHT22;9807;48.258;12.690;2022-08-21T14:50:24;26.30;99.90
19342;DHT22;9807;48.258;12.690;2022-08-21T14:52:50;26.20;99.90
19342;DHT22;9807;48.258;12.690;2022-08-21T14:55:17;26.30;99.90
19342;DHT22;9807;48.258;12.690;2022-08-21T14:57:47;26.20;99.90
19342;DHT22;9807;48.258;12.690;2022-08-21T15:00:16;26.20;99.90
19342;DHT22;9807;48.258;12.690;2022-08-21T15:02:46;26.30;99.90
19342;DHT22;9807;48.258;12.690;2022-08-21T15:05:12;26.20;99.90
19342;DHT22;9807;48.258;12.690;2022-08-21T15:07:38;26.20;99.90
19342;DHT22;9807;48.258;12.690;2022-08-21T15:10:05;26.10;99.90
19342;DHT22;9807;48.258;12.690;2022-08-21T15:12:31;26.20;99.90
19342;DHT22;9807;48.258;12.690;2022-08-21T15:14:57;26.20;99.90
19342;DHT22;9807;48.258;12.690;2022-08-21T15:17:23;26.10;99.90
19342;DHT22;9807;48.258;12.690;2022-08-21T15:19:49;26.00;99.90
19342;DHT22;9807;48.258;12.690;2022-08-21T15:22:15;26.10;99.90
19342;DHT22;9807;48.258;12.690;2022-08-21T15:24:41;25.90;99.90
19342;DHT22;9807;48.258;12.690;2022-08-21T15:27:08;25.90;99.90
19342;DHT22;9807;48.258;12.690;2022-08-21T15:29:34;25.80;99.90
19342;DHT22;9807;48.258;12.690;2022-08-21T15:32:14;25.80;99.90
19342;DHT22;9807;48.258;12.690;2022-08-21T15:34:47;25.80;99.90
19342;DHT22;9807;48.258;12.690;2022-08-21T15:37:13;25.80;99.90
19342;DHT22;9807;48.258;12.690;2022-08-21T15:39:38;25.80;99.90
19342;DHT22;9807;48.258;12.690;2022-08-21T15:42:04;25.80;99.90
19342;DHT22;9807;48.258;12.690;2022-08-21T15:44:30;25.90;99.90
19342;DHT22;9807;48.258;12.690;2022-08-21T15:46:56;26.00;99.90
19342;DHT22;9807;48.258;12.690;2022-08-21T15:49:25;25.80;99.90
19342;DHT22;9807;48.258;12.690;2022-08-21T15:51:51;25.60;99.90
19342;DHT22;9807;48.258;12.690;2022-08-21T15:54:17;25.30;99.90
19342;DHT22;9807;48.258;12.690;2022-08-21T15:56:48;25.30;99.90
19342;DHT22;9807;48.258;12.690;2022-08-21T15:59:19;25.40;99.90
19342;DHT22;9807;48.258;12.690;2022-08-21T16:01:48;25.60;99.90
19342;DHT22;9807;48.258;12.690;2022-08-21T16:04:21;25.80;99.90
19342;DHT22;9807;48.258;12.690;2022-08-21T16:06:46;25.90;99.90
19342;DHT22;9807;48.258;12.690;2022-08-21T16:09:12;25.80;99.90
19342;DHT22;9807;48.258;12.690;2022-08-21T16:11:39;26.00;99.90
19342;DHT22;9807;48.258;12.690;2022-08-21T16:14:04;26.10;99.90
19342;DHT22;9807;48.258;12.690;2022-08-21T16:16:31;26.30;99.90
19342;DHT22;9807;48.258;12.690;2022-08-21T16:18:58;26.20;99.90
19342;DHT22;9807;48.258;12.690;2022-08-21T16:21:24;26.10;99.90
19342;DHT22;9807;48.258;12.690;2022-08-21T16:23:50;26.00;99.90
19342;DHT22;9807;48.258;12.690;2022-08-21T16:26:16;26.00;99.90
19342;DHT22;9807;48.258;12.690;2022-08-21T16:28:55;26.00;99.90
19342;DHT22;9807;48.258;12.690;2022-08-21T16:31:23;26.10;99.90
19342;DHT22;9807;48.258;12.690;2022-08-21T16:33:52;26.20;99.90
19342;DHT22;9807;48.258;12.690;2022-08-21T16:36:19;26.20;99.90
19342;DHT22;9807;48.258;12.690;2022-08-21T16:38:45;26.20;99.90
19342;DHT22;9807;48.258;12.690;2022-08-21T16:41:15;26.10;99.90
19342;DHT22;9807;48.258;12.690;2022-08-21T16:43:43;26.00;99.90
19342;DHT22;9807;48.258;12.690;2022-08-21T16:46:13;26.10;99.90
19342;DHT22;9807;48.258;12.690;2022-08-21T16:48:40;26.20;99.90
19342;DHT22;9807;48.258;12.690;2022-08-21T16:51:07;26.10;99.90
19342;DHT22;9807;48.258;12.690;2022-08-21T16:53:32;25.90;99.90
19342;DHT22;9807;48.258;12.690;2022-08-21T16:55:59;25.70;99.90
19342;DHT22;9807;48.258;12.690;2022-08-21T16:58:29;25.80;99.90
19342;DHT22;9807;48.258;12.690;2022-08-21T17:00:57;25.80;99.90
19342;DHT22;9807;48.258;12.690;2022-08-21T17:03:29;25.80;99.90
19342;DHT22;9807;48.258;12.690;2022-08-21T17:05:56;25.80;99.90